Time;durP1;ratioP1;P1;durP2;ratioP2;P2;SDS_P1;SDS_P2;PMS_P1;PMS_P2;Temp;Humidity;BMP_temperature;BMP_pressure;BME280_temperature;BME280_humidity;BME280_pressure;Samples;Min_cycle;Max_cycle;Signal;HPM_P1;HPM_P2
2024/02/25 00:00:38;;;;;;;;;;;;;;;3.16;100.00;99672.00;5106379;28;20427;-78
2024/02/25 00:03:03;;;;;;;;;;;;;;;3.11;100.00;99666.38;5097029;28;19920;-79
2024/02/25 00:05:33;;;;;;;;;;;;;;;3.13;100.00;99659.03;5105029;28;19945;-78
2024/02/25 00:07:59;;;;;;;;;;;;;;;3.21;99.94;99662.63;5106541;28;19926;-78
2024/02/25 00:10:27;;;;;;;;;;;;;;;3.26;99.37;99654.94;5101912;28;19951;-78
2024/02/25 00:12:53;;;;;;;;;;;;;;;3.31;98.53;99652.59;5099058;28;19924;-78
2024/02/25 00:15:18;;;;;;;;;;;;;;;3.38;98.65;99656.16;5098771;28;19920;-78
2024/02/25 00:17:43;;;;;;;;;;;;;;;3.40;97.97;99651.50;5112266;28;20411;-79
2024/02/25 00:20:09;;;;;;;;;;;;;;;3.39;98.13;99655.16;5327016;22;19974;-78
2024/02/25 00:22:34;;;;;;;;;;;;;;;3.35;98.83;99651.22;5128845;22;20019;-78
2024/02/25 00:24:59;;;;;;;;;;;;;;;3.47;97.48;99652.44;5113466;28;19972;-79
2024/02/25 00:27:25;;;;;;;;;;;;;;;3.41;97.56;99649.69;5114754;27;20022;-79
2024/02/25 00:29:50;;;;;;;;;;;;;;;3.47;97.21;99663.09;5132716;27;19965;-78
2024/02/25 00:32:18;;;;;;;;;;;;;;;3.44;97.89;99658.13;5124106;27;19927;-79
2024/02/25 00:34:43;;;;;;;;;;;;;;;3.42;98.59;99652.16;5115432;27;19919;-79
2024/02/25 00:37:09;;;;;;;;;;;;;;;3.43;99.53;99645.81;5125399;27;19919;-79
2024/02/25 00:39:34;;;;;;;;;;;;;;;3.54;99.41;99651.69;5135258;27;19938;-79
2024/02/25 00:42:01;;;;;;;;;;;;;;;3.43;100.00;99643.16;5125733;27;19919;-78
2024/02/25 00:44:27;;;;;;;;;;;;;;;3.42;100.00;99630.88;5131856;27;20429;-79
2024/02/25 00:46:52;;;;;;;;;;;;;;;3.38;100.00;99632.22;5114479;28;19920;-78
2024/02/25 00:49:17;;;;;;;;;;;;;;;3.44;100.00;99636.03;5120412;27;19919;-78
2024/02/25 00:51:42;;;;;;;;;;;;;;;3.36;100.00;99628.91;5131600;27;20010;-79
2024/02/25 00:54:08;;;;;;;;;;;;;;;3.32;100.00;99628.47;5119196;27;20349;-78
2024/02/25 00:56:33;;;;;;;;;;;;;;;3.22;100.00;99627.06;5118004;27;19930;-78
2024/02/25 00:58:58;;;;;;;;;;;;;;;3.37;100.00;99625.25;5121153;27;20280;-78
2024/02/25 01:01:24;;;;;;;;;;;;;;;3.23;100.00;99618.91;5117628;27;20413;-78
2024/02/25 01:03:49;;;;;;;;;;;;;;;3.21;100.00;99620.06;5124192;27;19960;-80
2024/02/25 01:06:14;;;;;;;;;;;;;;;3.22;100.00;99619.06;5120591;27;20002;-79
2024/02/25 01:08:39;;;;;;;;;;;;;;;3.13;100.00;99620.97;5113437;28;19943;-79
2024/02/25 01:11:08;;;;;;;;;;;;;;;3.17;100.00;99608.97;5119204;28;19920;-78
2024/02/25 01:13:33;;;;;;;;;;;;;;;3.22;100.00;99611.94;5118228;28;19920;-79
2024/02/25 01:16:02;;;;;;;;;;;;;;;3.16;100.00;99609.97;5122157;28;20026;-78
2024/02/25 01:18:27;;;;;;;;;;;;;;;3.16;100.00;99602.84;5118516;28;19998;-79
2024/02/25 01:20:55;;;;;;;;;;;;;;;3.15;100.00;99608.31;5139441;28;19969;-79
2024/02/25 01:23:20;;;;;;;;;;;;;;;3.16;100.00;99613.47;5131527;28;19920;-78
2024/02/25 01:25:46;;;;;;;;;;;;;;;3.22;100.00;99598.63;5153352;22;20410;-79
2024/02/25 01:28:11;;;;;;;;;;;;;;;3.25;100.00;99602.75;5124113;28;20409;-79
2024/02/25 01:30:36;;;;;;;;;;;;;;;3.23;100.00;99602.13;5119787;28;20279;-78
2024/02/25 01:33:01;;;;;;;;;;;;;;;3.13;100.00;99597.88;5116963;28;19928;-79
2024/02/25 01:35:26;;;;;;;;;;;;;;;3.14;100.00;99594.22;5115656;28;19915;-79
2024/02/25 01:37:52;;;;;;;;;;;;;;;3.15;100.00;99587.91;5123770;28;20006;-78
2024/02/25 01:40:18;;;;;;;;;;;;;;;3.22;100.00;99589.81;5114626;28;19977;-78
2024/02/25 01:42:43;;;;;;;;;;;;;;;3.17;100.00;99591.22;5122173;28;19976;-77
2024/02/25 01:45:11;;;;;;;;;;;;;;;3.15;100.00;99593.22;5131872;28;19926;-77
2024/02/25 01:47:36;;;;;;;;;;;;;;;3.27;100.00;99587.44;5127810;28;19973;-78
2024/02/25 01:50:02;;;;;;;;;;;;;;;3.28;100.00;99589.09;5138948;28;19923;-77
2024/02/25 01:52:33;;;;;;;;;;;;;;;3.19;100.00;99586.50;5117722;28;20325;-79
2024/02/25 01:54:58;;;;;;;;;;;;;;;3.25;100.00;99579.66;5097545;28;19946;-78
2024/02/25 01:57:24;;;;;;;;;;;;;;;3.30;100.00;99581.78;5115161;28;19915;-78
2024/02/25 01:59:49;;;;;;;;;;;;;;;3.36;100.00;99580.22;5127610;28;19923;-78
2024/02/25 02:02:14;;;;;;;;;;;;;;;3.49;100.00;99585.75;5133066;28;19942;-79
2024/02/25 02:04:41;;;;;;;;;;;;;;;3.54;100.00;99579.84;5118940;28;19912;-79
2024/02/25 02:07:07;;;;;;;;;;;;;;;3.54;100.00;99575.38;5116623;28;19930;-78
2024/02/25 02:09:32;;;;;;;;;;;;;;;3.63;100.00;99579.59;5132077;28;19980;-77
2024/02/25 02:11:57;;;;;;;;;;;;;;;3.68;100.00;99575.56;5143309;28;19915;-77
2024/02/25 02:14:22;;;;;;;;;;;;;;;3.76;100.00;99575.47;5125457;28;19941;-79
2024/02/25 02:16:49;;;;;;;;;;;;;;;3.78;100.00;99579.59;5140640;28;20018;-78
2024/02/25 02:19:14;;;;;;;;;;;;;;;3.83;100.00;99581.69;5121060;28;19964;-77
2024/02/25 02:21:39;;;;;;;;;;;;;;;3.89;100.00;99580.97;5118364;27;19916;-79
2024/02/25 02:24:04;;;;;;;;;;;;;;;3.93;100.00;99576.94;5121515;27;20034;-78
2024/02/25 02:26:30;;;;;;;;;;;;;;;3.93;100.00;99565.44;5121572;27;19955;-78
2024/02/25 02:28:55;;;;;;;;;;;;;;;3.94;100.00;99577.75;5132557;27;19931;-78
2024/02/25 02:31:20;;;;;;;;;;;;;;;3.93;100.00;99568.97;5127937;27;20370;-79
2024/02/25 02:33:46;;;;;;;;;;;;;;;3.94;100.00;99567.09;5130279;28;19943;-78
2024/02/25 02:36:11;;;;;;;;;;;;;;;3.93;100.00;99565.44;5144895;27;20048;-79
2024/02/25 02:38:36;;;;;;;;;;;;;;;3.94;100.00;99570.59;5133953;27;19919;-79
2024/02/25 02:41:02;;;;;;;;;;;;;;;3.94;100.00;99575.09;5124429;28;19919;-78
2024/02/25 02:43:27;;;;;;;;;;;;;;;3.95;100.00;99574.09;5120841;28;19927;-78
2024/02/25 02:45:52;;;;;;;;;;;;;;;3.95;100.00;99574.09;5119488;27;20300;-78
2024/02/25 02:48:18;;;;;;;;;;;;;;;3.94;100.00;99567.94;5125344;27;20363;-78
2024/02/25 02:50:44;;;;;;;;;;;;;;;3.97;100.00;99574.72;5125552;27;19923;-78
2024/02/25 02:53:09;;;;;;;;;;;;;;;3.96;100.00;99574.94;5116948;28;20340;-79
2024/02/25 02:55:34;;;;;;;;;;;;;;;3.98;100.00;99576.38;5115887;28;20006;-78
2024/02/25 02:58:00;;;;;;;;;;;;;;;3.99;100.00;99564.72;5124303;27;19955;-78
2024/02/25 03:00:25;;;;;;;;;;;;;;;4.00;100.00;99574.38;5122674;27;19923;-78
2024/02/25 03:02:50;;;;;;;;;;;;;;;4.00;100.00;99576.19;5117495;27;19928;-79
2024/02/25 03:05:15;;;;;;;;;;;;;;;3.99;100.00;99574.53;5122791;27;19920;-79
2024/02/25 03:07:42;;;;;;;;;;;;;;;4.02;100.00;99569.69;5115778;27;20002;-78
2024/02/25 03:10:13;;;;;;;;;;;;;;;4.06;100.00;99576.25;5115399;27;19919;-78
2024/02/25 03:12:38;;;;;;;;;;;;;;;4.04;100.00;99572.16;5119891;27;20485;-78
2024/02/25 03:15:04;;;;;;;;;;;;;;;4.05;100.00;99569.31;5122358;27;19920;-78
2024/02/25 03:17:29;;;;;;;;;;;;;;;4.08;100.00;99555.59;5123877;27;19919;-79
2024/02/25 03:19:54;;;;;;;;;;;;;;;4.10;100.00;99572.22;5116234;27;19942;-79
2024/02/25 03:22:19;;;;;;;;;;;;;;;4.05;100.00;99573.81;5114234;27;19930;-79
2024/02/25 03:24:45;;;;;;;;;;;;;;;4.04;100.00;99569.47;5122821;27;19915;-78
2024/02/25 03:27:11;;;;;;;;;;;;;;;4.07;100.00;99556.59;5169697;22;19977;-79
2024/02/25 03:29:36;;;;;;;;;;;;;;;4.10;100.00;99566.91;5107535;28;19935;-79
2024/02/25 03:32:01;;;;;;;;;;;;;;;4.09;100.00;99573.22;5113916;28;19927;-79
2024/02/25 03:34:26;;;;;;;;;;;;;;;4.09;100.00;99573.22;5113353;28;19927;-78
2024/02/25 03:36:51;;;;;;;;;;;;;;;4.10;100.00;99571.41;5114132;28;19927;-77
2024/02/25 03:39:17;;;;;;;;;;;;;;;4.06;100.00;99562.94;5111620;22;20077;-76
2024/02/25 03:41:42;;;;;;;;;;;;;;;4.10;100.00;99577.53;5093449;28;20014;-75
2024/02/25 03:44:07;;;;;;;;;;;;;;;4.14;100.00;99577.19;5099110;28;20057;-76
2024/02/25 03:46:32;;;;;;;;;;;;;;;4.13;100.00;99572.88;5112442;28;19919;-76
2024/02/25 03:48:58;;;;;;;;;;;;;;;4.13;100.00;99575.53;5096499;28;19920;-76
2024/02/25 03:51:23;;;;;;;;;;;;;;;4.14;100.00;99569.19;5099140;28;19922;-75
2024/02/25 03:53:48;;;;;;;;;;;;;;;4.12;100.00;99573.88;5092833;28;19920;-76
2024/02/25 03:56:14;;;;;;;;;;;;;;;4.13;100.00;99564.88;5092203;28;20356;-76
2024/02/25 03:58:42;;;;;;;;;;;;;;;4.10;100.00;99582.06;5097853;28;19916;-75
2024/02/25 04:01:08;;;;;;;;;;;;;;;4.08;100.00;99568.91;5093067;28;20031;-76
2024/02/25 04:03:33;;;;;;;;;;;;;;;3.98;100.00;99570.22;5093394;28;20066;-76
2024/02/25 04:05:59;;;;;;;;;;;;;;;4.04;100.00;99575.66;5093270;28;19920;-76
2024/02/25 04:08:24;;;;;;;;;;;;;;;4.05;100.00;99569.31;5095401;28;19928;-76
2024/02/25 04:10:49;;;;;;;;;;;;;;;4.03;100.00;99570.50;5091512;28;19928;-76
2024/02/25 04:13:15;;;;;;;;;;;;;;;4.03;100.00;99571.34;5100157;28;19920;-76
2024/02/25 04:15:40;;;;;;;;;;;;;;;4.01;100.00;99570.69;5112458;28;19924;-76
2024/02/25 04:18:05;;;;;;;;;;;;;;;3.97;100.00;99568.59;5105276;28;20008;-76
2024/02/25 04:20:31;;;;;;;;;;;;;;;3.99;100.00;99578.03;5105517;28;19919;-76
2024/02/25 04:22:56;;;;;;;;;;;;;;;3.97;100.00;99577.38;5102292;28;20330;-76
2024/02/25 04:25:21;;;;;;;;;;;;;;;3.98;100.00;99576.38;5092745;28;19915;-77
2024/02/25 04:27:46;;;;;;;;;;;;;;;3.95;100.00;99579.41;5111170;28;19919;-75
2024/02/25 04:30:12;;;;;;;;;;;;;;;3.94;100.00;99562.63;5109894;28;19920;-75
2024/02/25 04:32:40;;;;;;;;;;;;;;;3.96;100.00;99569.59;5105265;28;19961;-76
2024/02/25 04:35:06;;;;;;;;;;;;;;;3.97;100.00;99563.25;5113497;28;19923;-75
2024/02/25 04:37:31;;;;;;;;;;;;;;;3.94;100.00;99580.41;5103692;28;19997;-76
2024/02/25 04:39:58;;;;;;;;;;;;;;;3.96;100.00;99581.06;5107148;28;19926;-76
2024/02/25 04:42:23;;;;;;;;;;;;;;;3.92;100.00;99569.13;5109723;28;19978;-75
2024/02/25 04:44:48;;;;;;;;;;;;;;;3.95;100.00;99558.09;5099036;28;19920;-76
2024/02/25 04:47:16;;;;;;;;;;;;;;;3.95;100.00;99574.09;5117497;28;19927;-75
2024/02/25 04:49:41;;;;;;;;;;;;;;;3.88;100.00;99571.34;5115980;28;19920;-75
2024/02/25 04:52:12;;;;;;;;;;;;;;;3.87;100.00;99566.22;5114115;28;19926;-76
2024/02/25 04:54:38;;;;;;;;;;;;;;;3.85;100.00;99573.56;5111462;28;19998;-76
2024/02/25 04:57:03;;;;;;;;;;;;;;;3.85;100.00;99577.03;5103533;28;20025;-75
2024/02/25 04:59:31;;;;;;;;;;;;;;;3.82;100.00;99566.75;5098949;28;19920;-76
2024/02/25 05:01:59;;;;;;;;;;;;;;;3.82;100.00;99569.41;5100394;28;19920;-75
2024/02/25 05:04:25;;;;;;;;;;;;;;;3.83;100.00;99571.06;5092167;28;19923;-76
2024/02/25 05:06:53;;;;;;;;;;;;;;;3.85;100.00;99565.56;5093101;28;19920;-76
2024/02/25 05:09:18;;;;;;;;;;;;;;;3.81;100.00;99569.59;5088726;28;20011;-77
2024/02/25 05:11:43;;;;;;;;;;;;;;;3.81;100.00;99574.94;5105666;28;19959;-77
2024/02/25 05:14:08;;;;;;;;;;;;;;;3.76;100.00;99575.47;5099257;28;19924;-76
2024/02/25 05:16:34;;;;;;;;;;;;;;;3.81;100.00;99567.75;5108062;28;19920;-76
2024/02/25 05:18:59;;;;;;;;;;;;;;;3.81;100.00;99572.25;5110030;28;19981;-75
2024/02/25 05:21:24;;;;;;;;;;;;;;;3.71;100.00;99575.19;5108725;28;19924;-76
2024/02/25 05:23:50;;;;;;;;;;;;;;;3.73;100.00;99575.84;5099932;28;19927;-76
2024/02/25 05:26:15;;;;;;;;;;;;;;;3.68;100.00;99588.88;5102606;28;19938;-76
2024/02/25 05:28:40;;;;;;;;;;;;;;;3.71;100.00;99586.66;5087246;28;19920;-75
2024/02/25 05:31:06;;;;;;;;;;;;;;;3.70;100.00;99581.53;5098385;28;19931;-76
2024/02/25 05:33:31;;;;;;;;;;;;;;;3.67;100.00;99584.56;5092079;28;19955;-76
2024/02/25 05:35:58;;;;;;;;;;;;;;;3.66;100.00;99581.09;5093578;28;19989;-77
2024/02/25 05:38:23;;;;;;;;;;;;;;;3.66;100.00;99580.25;5102046;28;19912;-77
2024/02/25 05:40:51;;;;;;;;;;;;;;;3.55;100.00;99589.50;5130433;22;20029;-77
2024/02/25 05:43:16;;;;;;;;;;;;;;;3.52;100.00;99580.06;5116366;28;19948;-77
2024/02/25 05:45:41;;;;;;;;;;;;;;;3.49;100.00;99581.25;5113984;28;19936;-76
2024/02/25 05:48:07;;;;;;;;;;;;;;;3.49;100.00;99575.94;5113347;28;19924;-76
2024/02/25 05:50:32;;;;;;;;;;;;;;;3.49;100.00;99591.06;5113423;28;19932;-76
2024/02/25 05:52:57;;;;;;;;;;;;;;;3.41;100.00;99581.31;5114574;28;19920;-76
2024/02/25 05:55:22;;;;;;;;;;;;;;;3.47;100.00;99593.91;5114811;28;19946;-76
2024/02/25 05:57:48;;;;;;;;;;;;;;;3.46;100.00;99578.97;5190201;22;19931;-75
2024/02/25 06:00:13;;;;;;;;;;;;;;;3.44;100.00;99588.13;5119778;28;19926;-75
2024/02/25 06:02:45;;;;;;;;;;;;;;;3.43;100.00;99589.16;5130748;28;19912;-76
2024/02/25 06:05:16;;;;;;;;;;;;;;;3.38;100.00;99597.66;5130084;28;19922;-77
2024/02/25 06:07:42;;;;;;;;;;;;;;;3.32;100.00;99596.53;5118453;28;19926;-77
2024/02/25 06:10:10;;;;;;;;;;;;;;;3.38;100.00;99594.16;5119344;28;20006;-77
2024/02/25 06:12:37;;;;;;;;;;;;;;;3.37;100.00;99603.97;5117721;28;19923;-78
2024/02/25 06:15:03;;;;;;;;;;;;;;;3.28;100.00;99605.06;5113521;28;19919;-77
2024/02/25 06:17:28;;;;;;;;;;;;;;;3.32;100.00;99606.38;5115911;28;19930;-76
2024/02/25 06:19:54;;;;;;;;;;;;;;;3.33;100.00;99602.69;5107824;28;19927;-79
2024/02/25 06:22:19;;;;;;;;;;;;;;;3.31;100.00;99604.72;5131234;22;19975;-78
2024/02/25 06:24:44;;;;;;;;;;;;;;;3.31;100.00;99608.19;5130204;27;19927;-78
2024/02/25 06:27:12;;;;;;;;;;;;;;;3.37;100.00;99611.13;5196076;22;19931;-77
2024/02/25 06:29:46;;;;;;;;;;;;;;;3.34;100.00;99609.69;5136486;27;19923;-77
2024/02/25 06:32:11;;;;;;;;;;;;;;;3.33;100.00;99614.16;5148449;27;19930;-77
2024/02/25 06:34:55;;;;;;;;;;;;;;;3.32;100.00;99611.69;5136165;27;19927;-78
2024/02/25 06:37:55;;;;;;;;;;;;;;;3.32;100.00;99617.00;5135840;27;20358;-78
2024/02/25 06:40:20;;;;;;;;;;;;;;;3.34;100.00;99617.66;5582263;22;20035;-77
2024/02/25 06:42:48;;;;;;;;;;;;;;;3.29;100.00;99618.16;5133307;27;19963;-77
2024/02/25 06:45:13;;;;;;;;;;;;;;;3.28;100.00;99611.19;5123852;27;20365;-77
2024/02/25 06:47:38;;;;;;;;;;;;;;;3.31;100.00;99615.34;5120172;27;19950;-77
2024/02/25 06:50:05;;;;;;;;;;;;;;;3.34;100.00;99620.31;5127017;27;19963;-78
2024/02/25 06:52:33;;;;;;;;;;;;;;;3.28;100.00;99616.53;5131398;27;19996;-78
2024/02/25 06:54:58;;;;;;;;;;;;;;;3.31;100.00;99620.66;5133945;27;19921;-78
2024/02/25 06:57:26;;;;;;;;;;;;;;;3.30;100.00;99629.66;5127622;27;19977;-77
2024/02/25 06:59:51;;;;;;;;;;;;;;;3.36;100.00;99626.25;5122938;27;19987;-78
2024/02/25 07:02:16;;;;;;;;;;;;;;;3.35;100.00;99627.28;5130639;27;20002;-78
2024/02/25 07:04:42;;;;;;;;;;;;;;;3.36;100.00;99636.09;5133338;27;19926;-78
2024/02/25 07:07:07;;;;;;;;;;;;;;;3.29;100.00;99638.63;5126749;27;19923;-78
2024/02/25 07:09:32;;;;;;;;;;;;;;;3.29;100.00;99642.09;5127009;27;19931;-78
2024/02/25 07:11:58;;;;;;;;;;;;;;;3.38;100.00;99644.72;5120590;27;19938;-77
2024/02/25 07:14:23;;;;;;;;;;;;;;;3.38;100.00;99645.53;5118742;27;19927;-77
2024/02/25 07:16:48;;;;;;;;;;;;;;;3.41;100.00;99647.84;5113847;28;19924;-79
2024/02/25 07:19:13;;;;;;;;;;;;;;;3.46;100.00;99640.16;5119751;27;19926;-80
2024/02/25 07:21:39;;;;;;;;;;;;;;;3.53;100.00;99640.25;5125176;27;19948;-79
2024/02/25 07:24:04;;;;;;;;;;;;;;;3.56;100.00;99649.69;5123394;27;20013;-77
2024/02/25 07:26:29;;;;;;;;;;;;;;;3.59;100.00;99644.84;5124137;27;19954;-77
2024/02/25 07:28:54;;;;;;;;;;;;;;;3.65;100.00;99643.31;5118252;27;20010;-86
2024/02/25 07:31:20;;;;;;;;;;;;;;;3.72;100.00;99648.72;5122199;27;19919;-81
2024/02/25 07:33:46;;;;;;;;;;;;;;;3.74;100.00;99644.84;5117034;27;19942;-80
2024/02/25 07:36:11;;;;;;;;;;;;;;;3.83;100.00;99642.13;5114993;27;20267;-81
2024/02/25 07:38:37;;;;;;;;;;;;;;;3.91;100.00;99650.00;5125926;27;20358;-80
2024/02/25 07:41:02;;;;;;;;;;;;;;;3.98;100.00;99648.28;5127630;27;19920;-79
2024/02/25 07:43:27;;;;;;;;;;;;;;;4.00;100.00;99646.25;5127446;27;19923;-79
2024/02/25 07:45:52;;;;;;;;;;;;;;;4.01;100.00;99653.25;5121842;27;19927;-79
2024/02/25 07:48:18;;;;;;;;;;;;;;;4.03;100.00;99645.91;5121741;27;19919;-80
2024/02/25 07:50:44;;;;;;;;;;;;;;;4.01;100.00;99647.91;5133333;27;20351;-79
2024/02/25 07:53:09;;;;;;;;;;;;;;;4.09;100.00;99655.78;5118005;27;19926;-79
2024/02/25 07:55:35;;;;;;;;;;;;;;;4.15;100.00;99653.41;5127527;27;19923;-79
2024/02/25 07:58:01;;;;;;;;;;;;;;;4.16;100.00;99661.22;5121725;27;19942;-79
2024/02/25 08:00:29;;;;;;;;;;;;;;;4.22;100.00;99657.81;5122813;27;20005;-79
2024/02/25 08:02:54;;;;;;;;;;;;;;;4.35;100.00;99659.84;5127828;27;19919;-79
2024/02/25 08:05:20;;;;;;;;;;;;;;;4.49;100.00;99665.31;5133303;27;20281;-79
2024/02/25 08:07:46;;;;;;;;;;;;;;;4.91;100.00;99668.25;5135302;27;20321;-79
2024/02/25 08:10:12;;;;;;;;;;;;;;;5.57;100.00;99673.38;5127820;27;19924;-80
2024/02/25 08:12:39;;;;;;;;;;;;;;;5.58;100.00;99675.03;5123761;27;20410;-80
2024/02/25 08:15:05;;;;;;;;;;;;;;;5.34;100.00;99670.94;5131421;27;19939;-80
2024/02/25 08:17:31;;;;;;;;;;;;;;;5.15;100.00;99669.72;5139236;27;19959;-81
2024/02/25 08:19:56;;;;;;;;;;;;;;;4.97;100.00;99670.16;5135098;27;19926;-79
2024/02/25 08:22:23;;;;;;;;;;;;;;;4.86;100.00;99666.16;5117023;27;20298;-81
2024/02/25 08:24:48;;;;;;;;;;;;;;;4.79;100.00;99665.25;5123311;27;20371;-79
2024/02/25 08:27:13;;;;;;;;;;;;;;;4.76;100.00;99673.63;5124579;27;19926;-81
2024/02/25 08:29:42;;;;;;;;;;;;;;;4.81;100.00;99673.88;5125826;27;19926;-78
2024/02/25 08:32:08;;;;;;;;;;;;;;;4.97;100.00;99678.97;5122797;27;19923;-78
2024/02/25 08:34:33;;;;;;;;;;;;;;;5.29;100.00;99673.34;5122853;27;19973;-78
2024/02/25 08:36:58;;;;;;;;;;;;;;;5.69;100.00;99680.84;5121060;27;19919;-78
2024/02/25 08:39:23;;;;;;;;;;;;;;;5.73;100.00;99682.13;5137653;27;19944;-77
2024/02/25 08:41:49;;;;;;;;;;;;;;;5.63;100.00;99676.28;5133542;27;19991;-79
2024/02/25 08:44:27;;;;;;;;;;;;;;;5.55;100.00;99679.94;5233692;22;19967;-78
2024/02/25 08:46:56;;;;;;;;;;;;;;;5.41;100.00;99679.00;5114712;27;19930;-80
2024/02/25 08:49:27;;;;;;;;;;;;;;;5.38;100.00;99680.22;5117588;27;19924;-79
2024/02/25 08:51:54;;;;;;;;;;;;;;;5.37;100.00;99683.06;5131183;27;20367;-79
2024/02/25 08:54:19;;;;;;;;;;;;;;;5.42;100.00;99672.63;5119976;27;19938;-79
2024/02/25 08:56:44;;;;;;;;;;;;;;;5.53;100.00;99685.44;5126668;27;20359;-80
2024/02/25 08:59:09;;;;;;;;;;;;;;;5.53;100.00;99677.44;5120149;27;20414;-78
2024/02/25 09:01:34;;;;;;;;;;;;;;;5.45;100.00;99685.59;5125554;27;19911;-80
2024/02/25 09:04:00;;;;;;;;;;;;;;;5.55;100.00;99688.75;5130289;27;19957;-79
2024/02/25 09:06:25;;;;;;;;;;;;;;;5.41;100.00;99679.81;5124646;27;19923;-79
2024/02/25 09:08:51;;;;;;;;;;;;;;;5.51;100.00;99684.81;5125334;27;19920;-83
2024/02/25 09:11:16;;;;;;;;;;;;;;;5.55;100.00;99682.59;5132568;27;19935;-79
2024/02/25 09:13:44;;;;;;;;;;;;;;;5.63;100.00;99686.97;5131009;28;20341;-80
2024/02/25 09:16:09;;;;;;;;;;;;;;;5.64;100.00;99683.28;5126199;28;19931;-78
2024/02/25 09:18:35;;;;;;;;;;;;;;;5.60;100.00;99681.00;5122238;28;20290;-80
2024/02/25 09:21:00;;;;;;;;;;;;;;;5.55;100.00;99680.75;5127188;28;19919;-83
2024/02/25 09:23:25;;;;;;;;;;;;;;;5.37;100.00;99681.22;5126185;28;19919;-80
2024/02/25 09:25:50;;;;;;;;;;;;;;;5.50;100.00;99688.50;5138249;28;19953;-80
2024/02/25 09:28:21;;;;;;;;;;;;;;;5.58;100.00;99680.38;5135852;27;19926;-80
2024/02/25 09:30:50;;;;;;;;;;;;;;;5.58;100.00;99691.03;5139443;27;20006;-80
2024/02/25 09:33:15;;;;;;;;;;;;;;;5.50;100.00;99691.16;5130185;27;20011;-81
2024/02/25 09:35:41;;;;;;;;;;;;;;;5.42;100.00;99684.13;5124710;27;20046;-82
2024/02/25 09:38:06;;;;;;;;;;;;;;;5.29;100.00;99676.00;5122687;27;19923;-81
2024/02/25 09:40:31;;;;;;;;;;;;;;;5.28;100.00;99685.88;5120777;27;19972;-81
2024/02/25 09:42:57;;;;;;;;;;;;;;;5.24;100.00;99697.94;5128625;27;19930;-80
2024/02/25 09:45:22;;;;;;;;;;;;;;;5.16;100.00;99685.53;5129364;27;20086;-80
2024/02/25 09:47:51;;;;;;;;;;;;;;;5.20;100.00;99691.31;5126320;27;20246;-80
2024/02/25 09:50:16;;;;;;;;;;;;;;;5.16;100.00;99696.22;5115897;28;20331;-80
2024/02/25 09:52:48;;;;;;;;;;;;;;;5.25;100.00;99701.41;5125622;27;19915;-79
2024/02/25 09:55:16;;;;;;;;;;;;;;;5.36;100.00;99690.25;5129956;27;20391;-79
2024/02/25 09:57:41;;;;;;;;;;;;;;;5.55;100.00;99691.44;5118159;27;19934;-80
2024/02/25 10:00:09;;;;;;;;;;;;;;;5.72;100.00;99697.31;5134911;27;19923;-79
2024/02/25 10:02:35;;;;;;;;;;;;;;;5.87;100.00;99699.06;5119795;27;20010;-80
2024/02/25 10:05:03;;;;;;;;;;;;;;;5.90;100.00;99701.34;5118638;27;19927;-81
2024/02/25 10:07:28;;;;;;;;;;;;;;;5.84;100.00;99705.59;5119610;27;19920;-81
2024/02/25 10:09:55;;;;;;;;;;;;;;;5.90;99.50;99699.50;5115006;27;19930;-80
2024/02/25 10:12:21;;;;;;;;;;;;;;;5.72;100.00;99701.81;5126836;27;20022;-81
2024/02/25 10:14:51;;;;;;;;;;;;;;;5.77;100.00;99704.75;5125719;27;19919;-80
2024/02/25 10:17:16;;;;;;;;;;;;;;;5.98;100.00;99697.72;5124309;27;19927;-80
2024/02/25 10:19:50;;;;;;;;;;;;;;;6.10;100.00;99701.50;5124105;27;19919;-81
2024/02/25 10:22:16;;;;;;;;;;;;;;;6.27;100.00;99701.19;5120001;27;19927;-81
2024/02/25 10:24:43;;;;;;;;;;;;;;;6.58;99.63;99694.53;5135704;27;19919;-80
2024/02/25 10:27:12;;;;;;;;;;;;;;;6.79;100.00;99697.09;5127466;27;19923;-80
2024/02/25 10:29:53;;;;;;;;;;;;;;;6.85;96.48;99705.34;5132907;27;19925;-81
2024/02/25 10:32:22;;;;;;;;;;;;;;;6.74;96.62;99693.38;5120070;27;19927;-81
2024/02/25 10:34:52;;;;;;;;;;;;;;;6.52;98.46;99701.53;5126498;27;20328;-80
2024/02/25 10:37:18;;;;;;;;;;;;;;;6.48;99.36;99701.09;5135269;27;20414;-80
2024/02/25 10:39:43;;;;;;;;;;;;;;;6.43;99.11;99702.72;5152116;22;19923;-80
2024/02/25 10:42:08;;;;;;;;;;;;;;;6.51;98.90;99702.53;5127000;27;19923;-80
2024/02/25 10:44:34;;;;;;;;;;;;;;;6.59;97.85;99698.88;5118356;27;19919;-80
2024/02/25 10:47:00;;;;;;;;;;;;;;;6.72;96.50;99701.59;5124187;27;19919;-80
2024/02/25 10:49:25;;;;;;;;;;;;;;;6.80;95.41;99692.56;5130001;27;19927;-78
2024/02/25 10:51:53;;;;;;;;;;;;;;;7.00;93.59;99695.31;5134247;27;19919;-80
2024/02/25 10:54:18;;;;;;;;;;;;;;;7.18;91.19;99705.44;5144756;27;19923;-80
2024/02/25 10:56:44;;;;;;;;;;;;;;;7.35;92.22;99697.84;5135610;27;20436;-81
2024/02/25 10:59:13;;;;;;;;;;;;;;;7.69;89.74;99697.84;5125489;27;19945;-80
2024/02/25 11:01:38;;;;;;;;;;;;;;;7.86;89.50;99698.25;5142980;27;19920;-80
2024/02/25 11:04:04;;;;;;;;;;;;;;;7.84;88.11;99703.00;5144000;27;19926;-81
2024/02/25 11:06:30;;;;;;;;;;;;;;;7.49;90.10;99701.38;5140186;27;19959;-82
2024/02/25 11:09:02;;;;;;;;;;;;;;;7.46;89.21;99704.44;5144625;27;20022;-81
2024/02/25 11:11:27;;;;;;;;;;;;;;;7.31;88.03;99701.16;5123755;27;19946;-81
2024/02/25 11:13:57;;;;;;;;;;;;;;;7.40;88.76;99705.25;5095195;22;19936;-80
2024/02/25 11:16:28;;;;;;;;;;;;;;;7.37;89.96;99703.81;5059571;28;19920;-81
2024/02/25 11:18:56;;;;;;;;;;;;;;;7.32;90.26;99692.91;5058372;28;19921;-80
2024/02/25 11:21:21;;;;;;;;;;;;;;;7.51;89.65;99703.84;5066499;28;20008;-80
2024/02/25 11:23:47;;;;;;;;;;;;;;;7.71;89.24;99703.81;5063406;28;20026;-81
2024/02/25 11:26:31;;;;;;;;;;;;;;;8.04;84.67;99685.03;5058126;28;20288;-80
2024/02/25 11:29:15;;;;;;;;;;;;;;;7.96;84.28;99689.81;5059123;28;19928;-80
2024/02/25 11:31:52;;;;;;;;;;;;;;;8.07;85.27;99691.84;5066039;28;20236;-79
2024/02/25 11:34:21;;;;;;;;;;;;;;;8.88;79.81;99697.78;5075591;28;19996;-80
2024/02/25 11:36:48;;;;;;;;;;;;;;;9.31;79.03;99692.78;5079803;28;19924;-82
2024/02/25 11:39:14;;;;;;;;;;;;;;;9.24;78.75;99695.53;5072798;28;19928;-80
2024/02/25 11:41:39;;;;;;;;;;;;;;;9.04;79.67;99684.88;5072844;28;19929;-79
2024/02/25 11:44:04;;;;;;;;;;;;;;;8.64;80.49;99691.28;5062342;28;19927;-81
2024/02/25 11:46:29;;;;;;;;;;;;;;;9.12;78.75;99692.69;5066031;28;20074;-81
2024/02/25 11:48:54;;;;;;;;;;;;;;;9.28;76.22;99682.47;5067476;28;20277;-81
2024/02/25 11:51:20;;;;;;;;;;;;;;;9.12;75.56;99687.31;5059242;28;20300;-81
2024/02/25 11:53:57;;;;;;;;;;;;;;;9.19;75.32;99693.47;5061097;28;20273;-80
2024/02/25 11:56:23;;;;;;;;;;;;;;;9.10;73.29;99689.41;5059932;28;19947;-81
2024/02/25 11:58:49;;;;;;;;;;;;;;;8.79;75.05;99682.97;5083420;28;19921;-81
2024/02/25 12:01:14;;;;;;;;;;;;;;;8.31;81.21;99682.28;5071827;28;19967;-82
2024/02/25 12:03:39;;;;;;;;;;;;;;;8.52;78.04;99687.63;5065176;28;19920;-81
2024/02/25 12:06:05;;;;;;;;;;;;;;;8.04;81.65;99681.53;5065069;28;19920;-80
2024/02/25 12:08:31;;;;;;;;;;;;;;;8.38;79.67;99681.44;5055205;28;20218;-80
2024/02/25 12:10:57;;;;;;;;;;;;;;;8.46;79.32;99687.41;5063338;28;19928;-79
2024/02/25 12:13:22;;;;;;;;;;;;;;;8.51;78.11;99684.09;5062838;28;19947;-79
2024/02/25 12:26:23;;;;;;;;;;;;;;;7.94;83.62;99678.47;6089894;22;1918117;-79
2024/02/25 12:29:07;;;;;;;;;;;;;;;8.23;80.49;99674.50;6202616;23;19916;-79
2024/02/25 12:31:32;;;;;;;;;;;;;;;8.42;78.33;99663.91;6204526;23;19951;-79
2024/02/25 12:33:58;;;;;;;;;;;;;;;8.52;78.65;99672.34;6202040;23;19923;-79
2024/02/25 12:36:26;;;;;;;;;;;;;;;8.63;78.81;99663.66;6193744;23;19943;-81
2024/02/25 12:38:51;;;;;;;;;;;;;;;8.79;76.90;99666.88;6194260;23;19991;-81
2024/02/25 12:41:16;;;;;;;;;;;;;;;8.74;76.24;99674.72;6195191;23;20166;-81
2024/02/25 12:43:45;;;;;;;;;;;;;;;8.73;76.53;99673.91;6199031;23;19913;-80
2024/02/25 12:46:11;;;;;;;;;;;;;;;8.82;75.86;99666.44;6200129;23;20379;-81
2024/02/25 12:48:37;;;;;;;;;;;;;;;9.33;72.68;99669.22;6207893;23;19916;-80
2024/02/25 12:51:02;;;;;;;;;;;;;;;10.22;70.54;99663.63;6210279;23;19900;-81
2024/02/25 12:53:28;;;;;;;;;;;;;;;12.09;61.38;99670.03;6195436;23;20286;-82